EZY4Y EGCC-EGKK
Flight info
| Callsign | EZY4Y |
|---|---|
| Flight time | 0h 40m |
| Altitude | 19000 |
| Route | LISTO2S LISTO L612 HON N859 KIDLI KIDLI1G |
| Aircraft | A20N/M-V/N |
Departure
| Time | 2026-05-05 19:12 |
|---|---|
| Airport | Manchester Airport (EGCC) |
Arrival
| Time | 2026-05-05 19:53 |
|---|---|
| Airport | London Gatwick Airport (EGKK) |
| Time | Latitude | Longitude | Altitude | Speed | Heading |
|---|---|---|---|---|---|
| 2026-05-05 18:53 | 53.36044 | -2.26900 | 235 ft | 0 kts | 315° |
| 2026-05-05 19:03 | 53.36043 | -2.26898 | 235 ft | 2 kts | 314° |
| 2026-05-05 19:03 | 53.36026 | -2.26864 | 239 ft | 4 kts | 297° |
| 2026-05-05 19:04 | 53.36018 | -2.26822 | 239 ft | 4 kts | 274° |
| 2026-05-05 19:04 | 53.36019 | -2.26779 | 238 ft | 4 kts | 248° |
| 2026-05-05 19:04 | 53.36027 | -2.26754 | 236 ft | 0 kts | 231° |
| 2026-05-05 19:08 | 53.36022 | -2.26764 | 236 ft | 4 kts | 229° |
| 2026-05-05 19:08 | 53.35991 | -2.26821 | 236 ft | 9 kts | 223° |
| 2026-05-05 19:08 | 53.35914 | -2.26837 | 235 ft | 13 kts | 197° |
| 2026-05-05 19:08 | 53.35844 | -2.26971 | 237 ft | 18 kts | 243° |
| 2026-05-05 19:09 | 53.35761 | -2.27165 | 240 ft | 23 kts | 232° |
| 2026-05-05 19:09 | 53.35650 | -2.27395 | 243 ft | 27 kts | 230° |
| 2026-05-05 19:09 | 53.35522 | -2.27658 | 247 ft | 28 kts | 231° |
| 2026-05-05 19:09 | 53.35458 | -2.27892 | 251 ft | 8 kts | 256° |
| 2026-05-05 19:10 | 53.35415 | -2.27987 | 252 ft | 13 kts | 224° |
| 2026-05-05 19:10 | 53.35331 | -2.28121 | 253 ft | 20 kts | 224° |
| 2026-05-05 19:10 | 53.35223 | -2.28315 | 255 ft | 25 kts | 231° |
| 2026-05-05 19:10 | 53.35103 | -2.28567 | 258 ft | 30 kts | 231° |
| 2026-05-05 19:11 | 53.34978 | -2.28805 | 261 ft | 29 kts | 225° |
| 2026-05-05 19:11 | 53.34837 | -2.29042 | 264 ft | 24 kts | 216° |
| 2026-05-05 19:11 | 53.34685 | -2.28999 | 266 ft | 21 kts | 123° |
| 2026-05-05 19:11 | 53.34707 | -2.28877 | 265 ft | 13 kts | 49° |
| 2026-05-05 19:12 | 53.34779 | -2.28732 | 265 ft | 19 kts | 52° |
| 2026-05-05 19:12 | 53.35075 | -2.28119 | 255 ft | 126 kts | 51° |
| 2026-05-05 19:12 | 53.35796 | -2.26643 | 625 ft | 189 kts | 50° |
| 2026-05-05 19:12 | 53.36715 | -2.24819 | 1234 ft | 228 kts | 50° |
| 2026-05-05 19:13 | 53.37818 | -2.22603 | 2074 ft | 265 kts | 55° |
| 2026-05-05 19:13 | 53.38767 | -2.19760 | 3046 ft | 292 kts | 67° |
| 2026-05-05 19:13 | 53.39206 | -2.16353 | 4211 ft | 306 kts | 89° |
| 2026-05-05 19:13 | 53.38972 | -2.12983 | 5150 ft | 277 kts | 99° |
| 2026-05-05 19:14 | 53.38587 | -2.09872 | 5942 ft | 273 kts | 103° |
| 2026-05-05 19:14 | 53.38072 | -2.06793 | 6747 ft | 277 kts | 107° |
| 2026-05-05 19:14 | 53.37345 | -2.03752 | 7535 ft | 285 kts | 121° |
| 2026-05-05 19:14 | 53.35949 | -2.01339 | 8327 ft | 296 kts | 148° |
| 2026-05-05 19:15 | 53.34058 | -2.00119 | 9109 ft | 298 kts | 174° |
| 2026-05-05 19:15 | 53.32001 | -2.00352 | 9921 ft | 306 kts | 200° |
| 2026-05-05 19:15 | 53.30079 | -2.02088 | 10678 ft | 327 kts | 223° |
| 2026-05-05 19:15 | 53.28628 | -2.05122 | 11441 ft | 344 kts | 245° |
| 2026-05-05 19:16 | 53.27925 | -2.08996 | 12213 ft | 352 kts | 264° |
| 2026-05-05 19:16 | 53.27466 | -2.13055 | 12997 ft | 360 kts | 252° |
| 2026-05-05 19:16 | 53.26267 | -2.16759 | 13805 ft | 368 kts | 234° |
| 2026-05-05 19:16 | 53.24386 | -2.19710 | 14536 ft | 375 kts | 216° |
| 2026-05-05 19:17 | 53.22010 | -2.21584 | 15276 ft | 383 kts | 198° |
| 2026-05-05 19:17 | 53.19354 | -2.22198 | 16037 ft | 390 kts | 181° |
| 2026-05-05 19:17 | 53.16678 | -2.21583 | 16814 ft | 397 kts | 167° |
| 2026-05-05 19:17 | 53.14030 | -2.20164 | 17615 ft | 402 kts | 161° |
| 2026-05-05 19:18 | 53.11433 | -2.18326 | 18404 ft | 408 kts | 156° |
| 2026-05-05 19:18 | 53.08879 | -2.16247 | 18802 ft | 410 kts | 157° |
| 2026-05-05 19:18 | 53.06264 | -2.14306 | 18966 ft | 411 kts | 159° |
| 2026-05-05 19:18 | 53.03628 | -2.12458 | 19008 ft | 411 kts | 159° |
| 2026-05-05 19:19 | 53.00985 | -2.10645 | 19012 ft | 411 kts | 160° |
| 2026-05-05 19:19 | 52.98342 | -2.08841 | 19000 ft | 411 kts | 159° |
| 2026-05-05 19:19 | 52.95698 | -2.07034 | 19002 ft | 411 kts | 159° |
| 2026-05-05 19:19 | 52.93057 | -2.05225 | 19014 ft | 411 kts | 159° |
| 2026-05-05 19:20 | 52.90409 | -2.03411 | 19014 ft | 411 kts | 159° |
| 2026-05-05 19:20 | 52.87770 | -2.01602 | 18996 ft | 410 kts | 159° |
| 2026-05-05 19:20 | 52.85139 | -1.99800 | 19008 ft | 409 kts | 159° |
| 2026-05-05 19:20 | 52.82500 | -1.97997 | 19002 ft | 410 kts | 159° |
| 2026-05-05 19:21 | 52.79863 | -1.96198 | 18993 ft | 410 kts | 159° |
| 2026-05-05 19:21 | 52.77229 | -1.94402 | 19003 ft | 410 kts | 159° |
| 2026-05-05 19:21 | 52.74594 | -1.92608 | 18994 ft | 410 kts | 159° |
| 2026-05-05 19:21 | 52.71994 | -1.90841 | 19001 ft | 409 kts | 159° |
| 2026-05-05 19:22 | 52.69361 | -1.89053 | 19001 ft | 409 kts | 159° |
| 2026-05-05 19:22 | 52.66741 | -1.87277 | 18994 ft | 409 kts | 159° |
| 2026-05-05 19:22 | 52.64176 | -1.85539 | 18996 ft | 409 kts | 159° |
| 2026-05-05 19:22 | 52.61538 | -1.83755 | 18993 ft | 409 kts | 159° |
| 2026-05-05 19:23 | 52.58905 | -1.81976 | 18994 ft | 409 kts | 159° |
| 2026-05-05 19:23 | 52.56263 | -1.80194 | 18994 ft | 409 kts | 159° |
| 2026-05-05 19:23 | 52.53668 | -1.78445 | 18993 ft | 409 kts | 159° |
| 2026-05-05 19:23 | 52.51020 | -1.76663 | 18987 ft | 409 kts | 159° |
| 2026-05-05 19:24 | 52.48377 | -1.74888 | 18993 ft | 408 kts | 159° |
| 2026-05-05 19:24 | 52.45772 | -1.73140 | 18995 ft | 408 kts | 159° |
| 2026-05-05 19:24 | 52.43141 | -1.71376 | 18992 ft | 408 kts | 159° |
| 2026-05-05 19:24 | 52.40499 | -1.69607 | 18993 ft | 408 kts | 159° |
| 2026-05-05 19:25 | 52.37868 | -1.67848 | 18993 ft | 408 kts | 159° |
| 2026-05-05 19:25 | 52.35219 | -1.66139 | 18993 ft | 408 kts | 162° |
| 2026-05-05 19:25 | 52.32549 | -1.64738 | 18991 ft | 407 kts | 164° |
| 2026-05-05 19:25 | 52.29846 | -1.63332 | 18993 ft | 407 kts | 164° |
| 2026-05-05 19:26 | 52.27149 | -1.61926 | 18978 ft | 407 kts | 164° |
| 2026-05-05 19:26 | 52.24451 | -1.60519 | 18988 ft | 408 kts | 164° |
| 2026-05-05 19:26 | 52.21745 | -1.59111 | 18990 ft | 407 kts | 163° |
| 2026-05-05 19:26 | 52.19040 | -1.57704 | 18991 ft | 407 kts | 164° |
| 2026-05-05 19:27 | 52.16336 | -1.56299 | 18991 ft | 407 kts | 163° |
| 2026-05-05 19:27 | 52.13628 | -1.54893 | 18991 ft | 408 kts | 164° |
| 2026-05-05 19:27 | 52.10955 | -1.53509 | 18989 ft | 407 kts | 164° |
| 2026-05-05 19:27 | 52.08244 | -1.52106 | 18988 ft | 408 kts | 164° |
| 2026-05-05 19:28 | 52.05543 | -1.50710 | 18987 ft | 408 kts | 164° |
| 2026-05-05 19:28 | 52.02832 | -1.49313 | 18966 ft | 407 kts | 163° |
| 2026-05-05 19:28 | 52.00116 | -1.47913 | 18968 ft | 408 kts | 164° |
| 2026-05-05 19:28 | 51.97448 | -1.46539 | 18963 ft | 408 kts | 164° |
| 2026-05-05 19:29 | 51.94735 | -1.45150 | 18966 ft | 405 kts | 163° |
| 2026-05-05 19:29 | 51.92045 | -1.43768 | 18966 ft | 405 kts | 163° |
| 2026-05-05 19:29 | 51.89358 | -1.42385 | 18964 ft | 404 kts | 163° |
| 2026-05-05 19:29 | 51.86719 | -1.41034 | 18814 ft | 403 kts | 163° |
| 2026-05-05 19:30 | 51.84037 | -1.39660 | 18553 ft | 401 kts | 163° |
| 2026-05-05 19:30 | 51.81376 | -1.38302 | 18292 ft | 399 kts | 163° |
| 2026-05-05 19:30 | 51.78738 | -1.36908 | 17990 ft | 398 kts | 160° |
| 2026-05-05 19:30 | 51.76216 | -1.35081 | 17693 ft | 398 kts | 152° |
| 2026-05-05 19:31 | 51.73872 | -1.32785 | 17404 ft | 397 kts | 147° |
| 2026-05-05 19:31 | 51.71587 | -1.30374 | 17113 ft | 396 kts | 147° |
| 2026-05-05 19:31 | 51.69283 | -1.27953 | 16822 ft | 395 kts | 147° |
| 2026-05-05 19:31 | 51.66974 | -1.25539 | 16531 ft | 394 kts | 147° |
| 2026-05-05 19:32 | 51.64669 | -1.23139 | 16257 ft | 393 kts | 147° |
| 2026-05-05 19:32 | 51.62369 | -1.20751 | 15977 ft | 392 kts | 148° |
| 2026-05-05 19:32 | 51.60077 | -1.18374 | 15698 ft | 391 kts | 148° |
| 2026-05-05 19:32 | 51.57797 | -1.16011 | 15413 ft | 390 kts | 148° |
| 2026-05-05 19:33 | 51.55542 | -1.13680 | 15140 ft | 389 kts | 147° |
| 2026-05-05 19:33 | 51.53270 | -1.11333 | 14998 ft | 388 kts | 147° |
| 2026-05-05 19:33 | 51.50991 | -1.08980 | 14946 ft | 388 kts | 147° |
| 2026-05-05 19:33 | 51.48716 | -1.06634 | 14712 ft | 386 kts | 147° |
| 2026-05-05 19:34 | 51.46489 | -1.04339 | 14446 ft | 374 kts | 147° |
| 2026-05-05 19:34 | 51.44299 | -1.02087 | 14179 ft | 373 kts | 147° |
| 2026-05-05 19:34 | 51.42128 | -0.99856 | 13916 ft | 373 kts | 148° |
| 2026-05-05 19:35 | 51.37773 | -0.95391 | 13341 ft | 370 kts | 147° |
| 2026-05-05 19:35 | 51.35610 | -0.93182 | 13026 ft | 366 kts | 147° |
| 2026-05-05 19:35 | 51.33469 | -0.90994 | 12750 ft | 361 kts | 147° |
| 2026-05-05 19:35 | 51.31405 | -0.88888 | 12461 ft | 347 kts | 147° |
| 2026-05-05 19:36 | 51.29402 | -0.86845 | 12178 ft | 336 kts | 147° |
| 2026-05-05 19:36 | 51.27410 | -0.84814 | 11892 ft | 340 kts | 147° |
| 2026-05-05 19:36 | 51.25436 | -0.82802 | 11619 ft | 338 kts | 147° |
| 2026-05-05 19:36 | 51.23449 | -0.80780 | 11351 ft | 336 kts | 147° |
| 2026-05-05 19:37 | 51.21473 | -0.78772 | 11067 ft | 336 kts | 147° |
| 2026-05-05 19:37 | 51.19507 | -0.76776 | 10783 ft | 335 kts | 147° |
| 2026-05-05 19:37 | 51.17537 | -0.74778 | 10518 ft | 334 kts | 147° |
| 2026-05-05 19:37 | 51.15577 | -0.72792 | 10259 ft | 333 kts | 147° |
| 2026-05-05 19:38 | 51.13638 | -0.70831 | 9995 ft | 332 kts | 147° |
| 2026-05-05 19:38 | 51.11676 | -0.68847 | 9719 ft | 332 kts | 147° |
| 2026-05-05 19:38 | 51.09774 | -0.66926 | 9429 ft | 330 kts | 147° |
| 2026-05-05 19:38 | 51.07836 | -0.64971 | 9136 ft | 328 kts | 147° |
| 2026-05-05 19:39 | 51.06020 | -0.62791 | 8967 ft | 325 kts | 134° |
| 2026-05-05 19:39 | 51.04634 | -0.60025 | 8942 ft | 324 kts | 120° |
| 2026-05-05 19:39 | 51.03601 | -0.56830 | 8803 ft | 324 kts | 115° |
| 2026-05-05 19:39 | 51.02607 | -0.53621 | 8517 ft | 321 kts | 115° |
| 2026-05-05 19:40 | 51.01626 | -0.50470 | 8235 ft | 320 kts | 115° |
| 2026-05-05 19:40 | 51.00640 | -0.47320 | 7987 ft | 318 kts | 115° |
| 2026-05-05 19:40 | 50.99656 | -0.44183 | 7941 ft | 317 kts | 115° |
| 2026-05-05 19:40 | 50.98672 | -0.41056 | 7932 ft | 310 kts | 115° |
| 2026-05-05 19:41 | 50.97736 | -0.38090 | 7938 ft | 290 kts | 115° |
| 2026-05-05 19:41 | 50.96846 | -0.35276 | 7942 ft | 286 kts | 115° |
| 2026-05-05 19:41 | 50.96253 | -0.33401 | 7935 ft | 286 kts | 115° |
| 2026-05-05 19:41 | 50.95072 | -0.29678 | 7679 ft | 283 kts | 115° |
| 2026-05-05 19:42 | 50.94182 | -0.26887 | 7434 ft | 282 kts | 115° |
| 2026-05-05 19:42 | 50.93593 | -0.25049 | 7268 ft | 281 kts | 115° |
| 2026-05-05 19:42 | 50.92749 | -0.22264 | 7018 ft | 278 kts | 107° |
| 2026-05-05 19:42 | 50.92552 | -0.19270 | 6770 ft | 272 kts | 79° |
| 2026-05-05 19:43 | 50.93227 | -0.16526 | 6522 ft | 266 kts | 52° |
| 2026-05-05 19:43 | 50.94605 | -0.14647 | 6264 ft | 261 kts | 25° |
| 2026-05-05 19:43 | 50.96332 | -0.14057 | 6049 ft | 259 kts | 357° |
| 2026-05-05 19:43 | 50.98043 | -0.14896 | 5998 ft | 261 kts | 329° |
| 2026-05-05 19:44 | 50.99310 | -0.16951 | 5880 ft | 266 kts | 302° |
| 2026-05-05 19:44 | 50.99870 | -0.19749 | 5633 ft | 269 kts | 281° |
| 2026-05-05 19:44 | 51.00152 | -0.22682 | 5374 ft | 266 kts | 281° |
| 2026-05-05 19:44 | 51.00421 | -0.25532 | 5120 ft | 258 kts | 281° |
| 2026-05-05 19:45 | 51.00678 | -0.28283 | 4868 ft | 251 kts | 281° |
| 2026-05-05 19:45 | 51.00927 | -0.30965 | 4608 ft | 245 kts | 281° |
| 2026-05-05 19:45 | 51.01173 | -0.33639 | 4347 ft | 246 kts | 281° |
| 2026-05-05 19:45 | 51.01425 | -0.36322 | 4079 ft | 243 kts | 281° |
| 2026-05-05 19:46 | 51.01673 | -0.38955 | 3835 ft | 237 kts | 281° |
| 2026-05-05 19:46 | 51.01914 | -0.41475 | 3585 ft | 228 kts | 281° |
| 2026-05-05 19:46 | 51.02149 | -0.43935 | 3323 ft | 221 kts | 281° |
| 2026-05-05 19:46 | 51.02551 | -0.46180 | 3076 ft | 212 kts | 304° |
| 2026-05-05 19:47 | 51.03597 | -0.47644 | 3005 ft | 195 kts | 340° |
| 2026-05-05 19:47 | 51.04839 | -0.48254 | 2997 ft | 180 kts | 346° |
| 2026-05-05 19:47 | 51.06017 | -0.48779 | 3017 ft | 180 kts | 346° |
| 2026-05-05 19:47 | 51.07220 | -0.49315 | 3003 ft | 182 kts | 346° |
| 2026-05-05 19:48 | 51.08447 | -0.49634 | 3001 ft | 180 kts | 7° |
| 2026-05-05 19:48 | 51.09531 | -0.48732 | 3005 ft | 181 kts | 50° |
| 2026-05-05 19:48 | 51.10092 | -0.46985 | 3004 ft | 177 kts | 68° |
| 2026-05-05 19:48 | 51.10503 | -0.45167 | 3003 ft | 178 kts | 69° |
| 2026-05-05 19:49 | 51.10887 | -0.43332 | 2999 ft | 177 kts | 70° |
| 2026-05-05 19:49 | 51.11260 | -0.41463 | 2912 ft | 173 kts | 71° |
| 2026-05-05 19:49 | 51.11596 | -0.39704 | 2688 ft | 160 kts | 72° |
| 2026-05-05 19:49 | 51.11913 | -0.37995 | 2476 ft | 161 kts | 72° |
| 2026-05-05 19:50 | 51.12213 | -0.36315 | 2261 ft | 160 kts | 73° |
| 2026-05-05 19:50 | 51.12504 | -0.34615 | 2042 ft | 158 kts | 74° |
| 2026-05-05 19:50 | 51.12781 | -0.32945 | 1836 ft | 155 kts | 75° |
| 2026-05-05 19:50 | 51.13036 | -0.31346 | 1626 ft | 143 kts | 76° |
| 2026-05-05 19:51 | 51.13260 | -0.29899 | 1441 ft | 133 kts | 76° |
| 2026-05-05 19:51 | 51.13470 | -0.28513 | 1260 ft | 131 kts | 77° |
| 2026-05-05 19:51 | 51.13673 | -0.27136 | 1079 ft | 131 kts | 77° |
| 2026-05-05 19:51 | 51.13883 | -0.25725 | 898 ft | 130 kts | 77° |
| 2026-05-05 19:52 | 51.14084 | -0.24324 | 726 ft | 131 kts | 76° |
| 2026-05-05 19:52 | 51.14291 | -0.22907 | 529 ft | 131 kts | 76° |
| 2026-05-05 19:52 | 51.14492 | -0.21508 | 364 ft | 129 kts | 78° |
| 2026-05-05 19:52 | 51.14671 | -0.20109 | 217 ft | 128 kts | 77° |
| 2026-05-05 19:53 | 51.14837 | -0.18892 | 208 ft | 70 kts | 78° |
| 2026-05-05 19:53 | 51.14927 | -0.18546 | 216 ft | 19 kts | 48° |
| 2026-05-05 19:53 | 51.14944 | -0.18514 | 205 ft | 2 kts | 49° |
| 2026-05-05 19:53 | 51.14969 | -0.18468 | 209 ft | 9 kts | 51° |
| 2026-05-05 19:54 | 51.15018 | -0.18364 | 214 ft | 15 kts | 53° |
| 2026-05-05 19:54 | 51.15096 | -0.18214 | 204 ft | 20 kts | 50° |
| 2026-05-05 19:54 | 51.15128 | -0.18153 | 217 ft | 0 kts | 50° |
| 2026-05-05 19:54 | 51.15128 | -0.18144 | 217 ft | 2 kts | 80° |
| 2026-05-05 19:55 | 51.15130 | -0.18086 | 213 ft | 8 kts | 81° |
| 2026-05-05 19:55 | 51.15147 | -0.17963 | 211 ft | 14 kts | 78° |
| 2026-05-05 19:55 | 51.15174 | -0.17802 | 215 ft | 14 kts | 56° |
| 2026-05-05 19:55 | 51.15224 | -0.17775 | 209 ft | 0 kts | 343° |
| 2026-05-05 19:56 | 51.15224 | -0.17776 | 209 ft | 0 kts | 343° |
| 2026-05-05 19:56 | 51.15236 | -0.17788 | 205 ft | 5 kts | 314° |
| 2026-05-05 19:56 | 51.15246 | -0.17867 | 205 ft | 10 kts | 255° |
| 2026-05-05 19:57 | 51.15223 | -0.18017 | 207 ft | 17 kts | 258° |
| 2026-05-05 19:57 | 51.15258 | -0.18102 | 205 ft | 7 kts | 347° |
| 2026-05-05 19:57 | 51.15324 | -0.18126 | 205 ft | 11 kts | 347° |
| 2026-05-05 19:57 | 51.15417 | -0.18158 | 205 ft | 17 kts | 348° |
| 2026-05-05 19:58 | 51.15548 | -0.18216 | 205 ft | 22 kts | 346° |
| 2026-05-05 19:58 | 51.15626 | -0.18243 | 211 ft | 0 kts | 349° |